Time;durP1;ratioP1;P1;durP2;ratioP2;P2;SDS_P1;SDS_P2;PMS_P1;PMS_P2;Temp;Humidity;BMP_temperature;BMP_pressure;BME280_temperature;BME280_humidity;BME280_pressure;Samples;Min_cycle;Max_cycle;Signal;HPM_P1;HPM_P2
2023/11/29 00:02:30;;;;;;;9.60;5.82;;;;;;;2.23;100.00;100268.81;4825455;29;20054;-68
2023/11/29 00:05:20;;;;;;;9.85;6.20;;;;;;;2.22;100.00;100267.19;4844090;29;20053;-68
2023/11/29 00:08:17;;;;;;;10.48;6.20;;;;;;;2.21;100.00;100270.09;4831680;29;20053;-67
2023/11/29 00:11:06;;;;;;;11.73;6.88;;;;;;;2.20;100.00;100268.47;4843545;29;20056;-69
2023/11/29 00:13:55;;;;;;;12.90;6.65;;;;;;;2.18;100.00;100262.50;4836510;29;20057;-69
2023/11/29 00:16:43;;;;;;;10.77;6.18;;;;;;;2.19;100.00;100266.81;4838273;29;20125;-69
2023/11/29 00:19:32;;;;;;;13.00;7.50;;;;;;;2.18;100.00;100281.31;4826342;29;20188;-69
2023/11/29 00:22:20;;;;;;;10.73;6.65;;;;;;;2.15;100.00;100276.41;4833392;29;20094;-68
2023/11/29 00:25:08;;;;;;;12.02;6.57;;;;;;;2.12;100.00;100275.78;4840611;29;20046;-68
2023/11/29 00:27:56;;;;;;;11.77;6.57;;;;;;;2.11;100.00;100297.50;4841686;29;20430;-68
2023/11/29 00:30:44;;;;;;;11.15;6.50;;;;;;;2.07;100.00;100323.22;4842261;29;20364;-68
2023/11/29 00:33:32;;;;;;;12.57;7.00;;;;;;;2.00;100.00;100333.22;4824213;29;20061;-68
2023/11/29 00:36:20;;;;;;;12.65;7.10;;;;;;;1.90;100.00;100323.78;4826461;29;20108;-68
2023/11/29 00:39:09;;;;;;;11.55;6.38;;;;;;;1.94;100.00;100313.41;4799828;29;20058;-68
2023/11/29 00:41:57;;;;;;;10.88;6.75;;;;;;;2.06;100.00;100308.94;4811956;29;20058;-68
2023/11/29 00:44:45;;;;;;;12.00;6.80;;;;;;;2.16;100.00;100289.59;4825784;29;20149;-68
2023/11/29 00:47:34;;;;;;;10.23;6.47;;;;;;;2.21;100.00;100287.03;4838214;29;20050;-68
2023/11/29 00:50:23;;;;;;;11.93;6.80;;;;;;;2.24;100.00;100283.91;4842381;29;20589;-68
2023/11/29 00:53:12;;;;;;;12.10;6.78;;;;;;;2.25;100.00;100282.84;4842498;29;20579;-68
2023/11/29 00:56:00;;;;;;;12.02;7.03;;;;;;;2.24;100.00;100283.09;4818300;29;20055;-68
2023/11/29 00:58:51;;;;;;;12.35;6.80;;;;;;;2.23;100.00;100284.13;4824357;29;20062;-68
2023/11/29 01:01:40;;;;;;;11.27;6.50;;;;;;;2.21;100.00;100302.34;4836425;29;20050;-68
2023/11/29 01:04:28;;;;;;;10.93;6.05;;;;;;;2.19;100.00;100285.63;4822040;29;20057;-68
2023/11/29 01:07:17;;;;;;;11.20;5.88;;;;;;;2.23;100.00;100278.75;4829595;29;20050;-68
2023/11/29 01:10:05;;;;;;;9.85;5.47;;;;;;;2.23;100.00;100265.31;4828337;29;20058;-68
2023/11/29 01:12:53;;;;;;;7.63;4.93;;;;;;;2.18;100.00;100249.06;4841168;29;20392;-68
2023/11/29 01:15:41;;;;;;;7.80;4.70;;;;;;;2.18;100.00;100249.06;4828457;29;20061;-68
2023/11/29 01:18:32;;;;;;;7.47;4.70;;;;;;;2.17;100.00;100242.88;4832261;29;20046;-67
2023/11/29 01:21:20;;;;;;;8.80;4.90;;;;;;;2.15;100.00;100244.97;4841758;29;20488;-68
2023/11/29 01:24:19;;;;;;;8.05;4.82;;;;;;;2.12;100.00;100235.47;4842250;29;20054;-68
2023/11/29 01:27:07;;;;;;;10.35;5.22;;;;;;;2.11;100.00;100239.19;4830239;29;20101;-68
2023/11/29 01:29:56;;;;;;;9.40;5.50;;;;;;;2.11;100.00;100249.13;4837937;29;20054;-68
2023/11/29 01:32:44;;;;;;;8.48;4.90;;;;;;;2.08;100.00;100250.41;4829637;29;20046;-68
2023/11/29 01:35:33;;;;;;;7.03;4.63;;;;;;;2.07;100.00;100231.84;4841849;29;20423;-66
2023/11/29 01:38:21;;;;;;;9.02;5.22;;;;;;;2.05;100.00;100237.44;4831931;29;20082;-68
2023/11/29 01:41:09;;;;;;;9.50;5.80;;;;;;;2.02;100.00;100237.91;4830029;29;20081;-67
2023/11/29 01:43:57;;;;;;;9.65;5.65;;;;;;;2.02;100.00;100234.38;4843008;29;20058;-68
2023/11/29 01:46:45;;;;;;;8.63;5.60;;;;;;;2.01;100.00;100228.19;4841057;29;20050;-68
2023/11/29 01:49:34;;;;;;;7.30;4.35;;;;;;;2.00;100.00;100194.31;4837503;29;20057;-69
2023/11/29 01:52:22;;;;;;;8.98;4.63;;;;;;;2.05;100.00;100177.50;4844112;29;20106;-66
2023/11/29 01:55:12;;;;;;;8.88;5.18;;;;;;;2.11;100.00;100180.09;4833791;29;20083;-68
2023/11/29 01:58:01;;;;;;;9.02;5.43;;;;;;;2.12;100.00;100176.38;4836733;29;20050;-64
2023/11/29 02:00:49;;;;;;;6.78;4.38;;;;;;;2.04;100.00;100160.53;4825023;29;20058;-67
2023/11/29 02:03:37;;;;;;;6.82;4.07;;;;;;;2.07;100.00;100138.63;4840258;29;20028;-66
2023/11/29 02:06:26;;;;;;;6.93;4.25;;;;;;;2.04;100.00;100141.75;4829058;29;20514;-68
2023/11/29 02:09:14;;;;;;;6.75;4.07;;;;;;;2.03;100.00;100150.84;4811379;29;20043;-69
2023/11/29 02:12:03;;;;;;;9.23;4.40;;;;;;;2.03;100.00;100145.47;4822524;29;20130;-70
2023/11/29 02:14:51;;;;;;;8.05;4.50;;;;;;;2.02;100.00;100134.97;4822921;29;20050;-68
2023/11/29 02:17:39;;;;;;;8.10;4.70;;;;;;;1.99;100.00;100138.91;4823281;29;20050;-68
2023/11/29 02:20:27;;;;;;;5.72;3.88;;;;;;;1.98;100.00;100142.66;4825293;29;20050;-68
2023/11/29 02:23:25;;;;;;;6.30;4.15;;;;;;;2.00;100.00;100137.88;4825362;29;20054;-67
2023/11/29 02:26:13;;;;;;;8.93;4.80;;;;;;;2.02;100.00;100146.53;4797855;29;20110;-68
2023/11/29 02:29:01;;;;;;;7.05;4.63;;;;;;;2.09;100.00;100138.38;4822391;29;20255;-68
2023/11/29 02:31:49;;;;;;;7.95;4.65;;;;;;;2.06;100.00;100126.22;4831146;29;20078;-67
2023/11/29 02:34:37;;;;;;;8.80;5.40;;;;;;;2.05;100.00;100148.78;4839366;29;20111;-68
2023/11/29 02:37:25;;;;;;;9.60;5.70;;;;;;;2.05;100.00;100148.78;4829712;29;20210;-67
2023/11/29 02:40:13;;;;;;;9.55;6.18;;;;;;;2.05;100.00;100146.09;4833579;29;20103;-67
2023/11/29 02:43:01;;;;;;;8.05;5.15;;;;;;;2.02;100.00;100133.13;4834971;29;20579;-68
2023/11/29 02:45:49;;;;;;;10.48;5.70;;;;;;;1.98;100.00;100131.91;4843969;29;20106;-68
2023/11/29 02:48:37;;;;;;;11.65;5.60;;;;;;;2.02;100.00;100125.06;4825123;29;20050;-67
2023/11/29 02:51:27;;;;;;;8.80;5.53;;;;;;;2.04;100.00;100114.88;4811283;29;20054;-68
2023/11/29 02:54:16;;;;;;;9.38;5.72;;;;;;;2.00;100.00;100107.53;4827779;29;20084;-67
2023/11/29 02:57:04;;;;;;;10.90;6.07;;;;;;;2.01;100.00;100109.97;4838694;29;20129;-67
2023/11/29 02:59:52;;;;;;;9.52;5.50;;;;;;;2.03;100.00;100097.13;4839471;29;20046;-67
2023/11/29 03:02:40;;;;;;;11.95;5.70;;;;;;;2.02;100.00;100086.59;4827309;29;20047;-68
2023/11/29 03:05:28;;;;;;;8.48;4.72;;;;;;;2.08;100.00;100085.69;4844355;29;20183;-67
2023/11/29 03:08:18;;;;;;;8.75;5.00;;;;;;;2.08;100.00;100073.06;4844168;29;20138;-68
2023/11/29 03:11:07;;;;;;;8.82;5.40;;;;;;;2.04;100.00;100061.13;4843138;29;20132;-67
2023/11/29 03:13:55;;;;;;;8.57;4.78;;;;;;;2.04;100.00;100061.13;4842939;29;20057;-68
2023/11/29 03:16:43;;;;;;;7.15;4.35;;;;;;;2.05;100.00;100053.91;4842956;29;20086;-67
2023/11/29 03:19:31;;;;;;;7.85;4.85;;;;;;;2.06;100.00;100053.66;4806822;29;20053;-67
2023/11/29 03:22:19;;;;;;;7.35;4.40;;;;;;;2.07;100.00;100049.13;4840775;29;20058;-68
2023/11/29 03:25:07;;;;;;;5.85;3.65;;;;;;;2.04;100.00;100038.81;4825218;29;20385;-68
2023/11/29 03:27:56;;;;;;;8.20;4.40;;;;;;;2.04;100.00;100036.13;4824930;29;20579;-68
2023/11/29 03:30:44;;;;;;;7.45;4.15;;;;;;;2.07;100.00;100027.63;4841031;29;20496;-68
2023/11/29 03:33:34;;;;;;;6.43;3.95;;;;;;;2.05;100.00;100033.22;4841763;29;20064;-68
2023/11/29 03:36:22;;;;;;;5.35;3.55;;;;;;;2.03;100.00;100034.53;4831113;29;20130;-68
2023/11/29 03:39:13;;;;;;;5.05;3.20;;;;;;;2.06;100.00;100026.00;4832326;29;20050;-68
2023/11/29 03:42:02;;;;;;;6.75;4.00;;;;;;;2.08;100.00;100019.31;4841567;29;20054;-69
2023/11/29 03:44:50;;;;;;;5.28;3.33;;;;;;;2.08;100.00;100013.13;4811331;29;20063;-68
2023/11/29 03:47:38;;;;;;;6.82;3.70;;;;;;;2.10;100.00;100011.03;4833394;29;20054;-69
2023/11/29 03:50:26;;;;;;;6.63;4.00;;;;;;;2.04;100.00;100007.41;4832424;29;20199;-69
2023/11/29 03:53:14;;;;;;;6.55;3.97;;;;;;;2.02;100.00;100004.16;4825668;29;20054;-68
2023/11/29 03:56:03;;;;;;;5.97;3.78;;;;;;;2.05;100.00;100000.19;4824604;29;20061;-67
2023/11/29 03:58:51;;;;;;;6.72;4.00;;;;;;;2.05;100.00;100003.69;4824083;29;20521;-67
2023/11/29 04:01:39;;;;;;;7.63;4.05;;;;;;;2.08;100.00;99997.84;4826601;29;20525;-69
2023/11/29 04:04:27;;;;;;;7.40;3.80;;;;;;;2.04;100.00;99990.47;4841430;29;20142;-68
2023/11/29 04:07:15;;;;;;;7.03;3.97;;;;;;;2.00;100.00;99990.13;4829609;29;20109;-68
2023/11/29 04:10:03;;;;;;;5.97;3.65;;;;;;;2.04;100.00;99996.66;4841881;29;20054;-68
2023/11/29 04:12:57;;;;;;;5.95;3.63;;;;;;;2.04;100.00;100004.72;4814833;29;20047;-68
2023/11/29 04:15:45;;;;;;;6.05;3.92;;;;;;;2.04;100.00;99996.66;4843379;29;20108;-67
2023/11/29 04:18:33;;;;;;;7.20;3.75;;;;;;;2.05;100.00;100000.19;4841602;29;20046;-68
2023/11/29 04:21:27;;;;;;;7.20;4.10;;;;;;;2.07;100.00;99985.47;4827230;29;20065;-70
2023/11/29 04:24:16;;;;;;;7.32;3.70;;;;;;;2.07;100.00;99988.16;4811500;29;20062;-69
2023/11/29 04:27:04;;;;;;;7.82;3.60;;;;;;;2.11;100.00;99980.44;4801078;29;20061;-68
2023/11/29 04:29:53;;;;;;;10.73;3.92;;;;;;;2.11;100.00;99981.25;4828988;29;20065;-68
2023/11/29 04:32:41;;;;;;;7.47;3.83;;;;;;;2.12;100.00;99990.94;4827988;29;20061;-68
2023/11/29 04:35:30;;;;;;;7.45;4.15;;;;;;;2.12;100.00;99988.25;4842067;29;20068;-67
2023/11/29 04:38:18;;;;;;;6.75;3.85;;;;;;;2.12;100.00;99980.19;4841655;29;20053;-67
2023/11/29 04:41:07;;;;;;;8.25;4.05;;;;;;;2.11;100.00;99970.50;4836842;29;20046;-68
2023/11/29 04:43:55;;;;;;;7.15;4.00;;;;;;;2.13;100.00;99972.94;4812314;29;20506;-68
2023/11/29 04:46:44;;;;;;;7.97;3.90;;;;;;;2.12;100.00;99965.97;4798942;29;20054;-68
2023/11/29 04:49:32;;;;;;;7.47;4.03;;;;;;;2.13;100.00;99952.25;4828150;29;20522;-68
2023/11/29 04:52:20;;;;;;;7.00;3.80;;;;;;;2.20;100.00;99951.34;4834604;29;20083;-68
2023/11/29 04:55:08;;;;;;;6.72;3.78;;;;;;;2.18;100.00;99953.44;4837482;29;20050;-68
2023/11/29 04:57:56;;;;;;;6.70;3.75;;;;;;;2.18;100.00;99948.06;4841821;29;20046;-68
2023/11/29 05:00:44;;;;;;;6.43;4.03;;;;;;;2.17;100.00;99954.50;4829324;29;20085;-68
2023/11/29 05:03:33;;;;;;;8.25;4.30;;;;;;;2.17;100.00;99957.19;4819049;29;20074;-68
2023/11/29 05:06:21;;;;;;;7.45;4.00;;;;;;;2.21;100.00;99961.03;4823211;29;20511;-67
2023/11/29 05:09:09;;;;;;;7.82;3.85;;;;;;;2.21;100.00;99966.41;4828638;29;20058;-69
2023/11/29 05:12:02;;;;;;;8.55;4.30;;;;;;;2.20;100.00;99967.47;4835904;29;20054;-67
2023/11/29 05:14:50;;;;;;;9.05;4.00;;;;;;;2.20;100.00;99959.41;4838616;29;20500;-69
2023/11/29 05:17:38;;;;;;;7.93;4.20;;;;;;;2.19;100.00;99976.56;4840944;29;20206;-68
2023/11/29 05:20:27;;;;;;;7.20;4.10;;;;;;;2.21;100.00;99977.16;4841561;29;20495;-68
2023/11/29 05:23:15;;;;;;;9.20;4.20;;;;;;;2.22;100.00;99973.44;4831495;29;20061;-67
2023/11/29 05:26:03;;;;;;;7.25;4.30;;;;;;;2.21;100.00;99969.91;4824655;29;20085;-68
2023/11/29 05:28:53;;;;;;;6.65;3.78;;;;;;;2.21;100.00;99958.34;4841936;29;20069;-68
2023/11/29 05:31:41;;;;;;;7.80;4.00;;;;;;;2.25;100.00;99948.78;4824699;29;20115;-68
2023/11/29 05:34:29;;;;;;;7.30;3.65;;;;;;;2.23;100.00;99945.50;4825258;29;20186;-69
2023/11/29 05:37:17;;;;;;;6.63;3.72;;;;;;;2.18;100.00;99931.94;4810103;29;20051;-68
2023/11/29 05:40:08;;;;;;;6.32;3.88;;;;;;;2.13;100.00;99929.97;4828166;29;20133;-68
2023/11/29 05:42:56;;;;;;;6.90;3.70;;;;;;;2.09;100.00;99923.41;4842067;29;20061;-68
2023/11/29 05:45:44;;;;;;;8.85;3.63;;;;;;;2.05;100.00;99928.44;4817501;29;20519;-68
2023/11/29 05:48:32;;;;;;;6.15;3.53;;;;;;;2.06;100.00;99929.25;4824031;29;20417;-69
2023/11/29 05:51:21;;;;;;;5.70;3.50;;;;;;;2.06;100.00;99935.44;4824279;29;20062;-69
2023/11/29 05:54:09;;;;;;;6.13;3.45;;;;;;;2.07;100.00;99941.66;4830092;29;20190;-68
2023/11/29 05:56:57;;;;;;;7.13;3.70;;;;;;;2.07;100.00;99942.47;4831193;29;20133;-68
2023/11/29 05:59:46;;;;;;;6.65;3.47;;;;;;;2.11;100.00;99957.06;4824080;29;20050;-68
2023/11/29 06:02:37;;;;;;;6.43;3.70;;;;;;;2.11;100.00;99954.38;4823663;29;20058;-68
2023/11/29 06:05:25;;;;;;;5.97;3.35;;;;;;;2.15;100.00;99953.91;4803908;29;20054;-68
2023/11/29 06:08:13;;;;;;;6.53;3.80;;;;;;;2.15;100.00;99948.53;4824360;29;20049;-69
2023/11/29 06:11:04;;;;;;;8.02;4.00;;;;;;;2.15;100.00;99943.97;4841253;29;20069;-69
2023/11/29 06:13:52;;;;;;;6.97;4.00;;;;;;;2.17;100.00;99938.38;4836144;29;20179;-69
2023/11/29 06:16:40;;;;;;;7.03;3.25;;;;;;;2.22;100.00;99933.13;4812803;29;20087;-68
2023/11/29 06:19:28;;;;;;;7.07;3.50;;;;;;;2.20;100.00;99930.66;4827415;29;20055;-66
2023/11/29 06:22:16;;;;;;;7.90;4.15;;;;;;;2.21;100.00;99940.34;4843617;29;20088;-65
2023/11/29 06:25:04;;;;;;;8.05;4.25;;;;;;;2.21;100.00;99939.53;4854263;29;20056;-66
2023/11/29 06:27:52;;;;;;;11.20;3.95;;;;;;;2.15;100.00;99927.03;4846249;29;20091;-66
2023/11/29 06:30:41;;;;;;;7.68;3.85;;;;;;;2.11;100.00;99938.25;4847259;29;20042;-67
2023/11/29 06:33:31;;;;;;;7.88;4.10;;;;;;;2.12;100.00;99933.72;4847546;29;20069;-64
2023/11/29 06:36:20;;;;;;;7.03;3.45;;;;;;;2.12;100.00;99934.53;4840072;29;20050;-66
2023/11/29 06:39:09;;;;;;;6.30;3.40;;;;;;;2.16;100.00;99939.41;4845430;29;20137;-68
2023/11/29 06:41:58;;;;;;;8.45;4.15;;;;;;;2.17;100.00;99941.06;4829076;29;20073;-66
2023/11/29 06:44:46;;;;;;;7.07;3.70;;;;;;;2.23;100.00;99940.94;4829021;29;20162;-66
2023/11/29 06:47:35;;;;;;;11.73;4.15;;;;;;;2.26;100.00;99947.69;4827721;29;20050;-66
2023/11/29 06:50:23;;;;;;;9.45;4.15;;;;;;;2.25;100.00;99949.59;4829959;29;20051;-67
2023/11/29 06:53:11;;;;;;;8.15;4.03;;;;;;;2.26;100.00;99950.38;4839580;29;20051;-67
2023/11/29 06:55:59;;;;;;;8.50;4.00;;;;;;;2.26;100.00;99955.75;4818856;29;20066;-67
2023/11/29 06:58:47;;;;;;;6.53;3.58;;;;;;;2.28;100.00;99953.66;4809205;29;20107;-66
2023/11/29 07:01:35;;;;;;;7.18;3.80;;;;;;;2.29;100.00;99960.69;4834674;29;20050;-67
2023/11/29 07:04:27;;;;;;;7.63;3.88;;;;;;;2.27;100.00;99955.53;4831501;29;20446;-67
2023/11/29 07:07:17;;;;;;;5.30;3.28;;;;;;;2.26;100.00;99956.59;4833592;29;20088;-67
2023/11/29 07:10:06;;;;;;;6.82;3.58;;;;;;;2.27;100.00;99970.84;4835508;29;20043;-67
2023/11/29 07:12:55;;;;;;;7.47;3.70;;;;;;;2.31;100.00;99958.59;4160741;29;10000688;-68
2023/11/29 07:15:43;;;;;;;7.78;3.70;;;;;;;2.29;100.00;99960.69;4826905;29;20520;-69
2023/11/29 07:18:31;;;;;;;7.95;3.80;;;;;;;2.27;100.00;99978.91;4825508;29;20065;-69
2023/11/29 07:21:19;;;;;;;11.70;4.90;;;;;;;2.25;100.00;99981.03;4834402;29;20187;-68
2023/11/29 07:24:07;;;;;;;9.32;3.50;;;;;;;2.22;100.00;99987.69;4825702;29;20054;-68
2023/11/29 07:26:55;;;;;;;9.20;3.10;;;;;;;2.22;100.00;99992.25;4824910;29;20053;-68
2023/11/29 07:29:43;;;;;;;7.45;3.00;;;;;;;2.23;100.00;99993.88;4833684;29;20054;-70
2023/11/29 07:32:31;;;;;;;4.75;2.83;;;;;;;2.25;100.00;99991.78;4826547;29;20411;-68
2023/11/29 07:35:19;;;;;;;5.10;2.50;;;;;;;2.22;100.00;100013.75;4825131;29;20053;-69
2023/11/29 07:38:07;;;;;;;7.28;3.15;;;;;;;2.20;100.00;100026.59;4836263;29;20186;-67
2023/11/29 07:40:55;;;;;;;5.32;2.88;;;;;;;2.20;100.00;100034.66;4839928;29;20141;-68
2023/11/29 07:43:44;;;;;;;6.57;2.60;;;;;;;2.19;100.00;100044.59;4833011;29;20415;-68
2023/11/29 07:46:32;;;;;;;3.85;2.25;;;;;;;2.20;100.00;100037.34;4829053;29;20042;-68
2023/11/29 07:49:20;;;;;;;2.97;1.92;;;;;;;2.19;100.00;100047.28;4821788;29;20046;-69
2023/11/29 07:52:08;;;;;;;3.25;1.98;;;;;;;2.21;100.00;100049.72;4831401;29;20058;-67
2023/11/29 07:54:58;;;;;;;8.45;2.45;;;;;;;2.23;100.00;100031.50;4841689;29;20061;-68
2023/11/29 07:57:47;;;;;;;4.53;1.95;;;;;;;2.28;100.00;100042.38;4828500;29;20387;-69
2023/11/29 08:00:35;;;;;;;7.68;2.22;;;;;;;2.30;100.00;100048.31;4821907;29;20061;-67
2023/11/29 08:03:23;;;;;;;7.47;2.35;;;;;;;2.31;100.00;100049.97;4798573;29;20066;-69
2023/11/29 08:06:11;;;;;;;9.30;2.60;;;;;;;2.34;100.00;100046.81;4823200;29;20141;-69
2023/11/29 08:09:00;;;;;;;4.85;2.38;;;;;;;2.35;100.00;100048.44;4840409;29;20054;-68
2023/11/29 08:11:48;;;;;;;5.55;2.30;;;;;;;2.34;100.00;100041.44;4824255;29;20046;-68
2023/11/29 08:14:36;;;;;;;5.32;2.67;;;;;;;2.34;100.00;100054.88;4840523;29;20046;-70
2023/11/29 08:17:24;;;;;;;6.47;2.78;;;;;;;2.33;100.00;100053.22;4825852;29;20058;-68
2023/11/29 08:20:13;;;;;;;4.10;2.33;;;;;;;2.33;100.00;100064.81;4839382;29;20072;-68
2023/11/29 08:23:01;;;;;;;7.07;2.33;;;;;;;2.35;100.00;100053.81;4827820;29;20085;-69
2023/11/29 08:25:49;;;;;;;6.80;2.50;;;;;;;2.37;100.00;100058.97;4829552;29;20202;-68
2023/11/29 08:28:37;;;;;;;4.25;2.20;;;;;;;2.37;100.00;100053.59;4832714;29;20050;-67
2023/11/29 08:31:27;;;;;;;5.72;2.70;;;;;;;2.38;100.00;100061.41;4820245;29;20512;-68
2023/11/29 08:34:15;;;;;;;5.88;2.38;;;;;;;2.39;100.00;100068.44;4808448;29;20050;-68
2023/11/29 08:37:03;;;;;;;3.72;2.20;;;;;;;2.42;100.00;100067.97;4811785;29;20168;-68
2023/11/29 08:39:53;;;;;;;7.43;2.50;;;;;;;2.41;100.00;100077.09;4832623;29;20057;-68
2023/11/29 08:42:41;;;;;;;5.35;2.17;;;;;;;2.43;100.00;100075.00;4824978;29;20062;-67
2023/11/29 08:45:29;;;;;;;5.78;2.10;;;;;;;2.44;100.00;100082.00;4826683;29;20077;-69
2023/11/29 08:48:17;;;;;;;5.03;2.10;;;;;;;2.43;100.00;100082.22;4830224;29;20060;-69
2023/11/29 08:51:08;;;;;;;6.40;2.70;;;;;;;2.45;100.00;100090.88;4824094;29;20085;-67
2023/11/29 08:53:58;;;;;;;6.20;2.33;;;;;;;2.46;100.00;100093.34;4811373;29;20046;-68
2023/11/29 08:56:46;;;;;;;10.85;2.55;;;;;;;2.47;100.00;100094.97;4825133;29;20419;-68
2023/11/29 08:59:35;;;;;;;5.35;2.22;;;;;;;2.49;100.00;100097.44;4826073;29;20502;-67
2023/11/29 09:02:23;;;;;;;6.00;2.50;;;;;;;2.50;100.00;100101.75;4830484;29;20069;-69
2023/11/29 09:05:12;;;;;;;6.70;2.55;;;;;;;2.51;100.00;100100.72;4823392;29;20141;-67
2023/11/29 09:08:00;;;;;;;5.28;2.75;;;;;;;2.53;100.00;100102.13;4829790;29;20483;-67
2023/11/29 09:10:48;;;;;;;7.47;2.83;;;;;;;2.56;100.00;100112.41;4827190;29;20153;-67
2023/11/29 09:13:38;;;;;;;7.85;2.78;;;;;;;2.58;100.00;100114.06;4834573;29;20496;-67
2023/11/29 09:16:26;;;;;;;6.95;2.67;;;;;;;2.60;100.00;100118.16;4835160;29;20046;-68
2023/11/29 09:19:14;;;;;;;6.63;2.67;;;;;;;2.61;100.00;100124.34;4814953;29;20054;-67
2023/11/29 09:22:07;;;;;;;6.57;2.70;;;;;;;2.63;100.00;100123.06;4840579;29;20129;-67
2023/11/29 09:24:57;;;;;;;6.68;2.47;;;;;;;2.63;100.00;100139.19;4841060;29;20079;-67
2023/11/29 09:27:45;;;;;;;6.78;3.00;;;;;;;2.62;100.00;100132.19;4840776;29;20521;-66
2023/11/29 09:30:36;;;;;;;8.55;3.20;;;;;;;2.63;100.00;100149.13;4813419;29;20056;-67
2023/11/29 09:33:24;;;;;;;8.38;3.17;;;;;;;2.64;100.00;100150.75;4824326;29;20152;-66
2023/11/29 09:36:12;;;;;;;7.80;2.90;;;;;;;2.64;100.00;100150.75;4823254;29;20069;-66
2023/11/29 09:39:12;;;;;;;12.18;3.22;;;;;;;2.67;100.00;100158.38;4827991;29;20062;-68
2023/11/29 09:42:02;;;;;;;7.50;3.08;;;;;;;2.63;100.00;100158.03;4837910;29;20054;-65
2023/11/29 09:44:51;;;;;;;9.50;3.95;;;;;;;2.64;100.00;100162.34;4827973;29;20066;-67
2023/11/29 09:47:39;;;;;;;9.35;3.40;;;;;;;2.67;100.00;100169.13;4825177;29;20050;-67
2023/11/29 09:50:28;;;;;;;6.57;2.72;;;;;;;2.73;100.00;100160.13;4828917;29;20513;-67
2023/11/29 09:53:16;;;;;;;6.95;2.55;;;;;;;2.77;100.00;100169.38;4823170;29;20043;-68
2023/11/29 09:56:04;;;;;;;9.02;2.92;;;;;;;2.78;100.00;100171.81;4823596;29;20499;-67
2023/11/29 09:58:52;;;;;;;6.05;2.67;;;;;;;2.80;100.00;100170.78;4834201;29;20054;-66
2023/11/29 10:01:46;;;;;;;6.72;2.83;;;;;;;2.80;100.00;100174.28;4839692;29;20185;-66
2023/11/29 10:04:40;;;;;;;8.88;2.80;;;;;;;2.80;100.00;100181.56;4828845;29;20520;-68
2023/11/29 10:07:28;;;;;;;7.78;2.83;;;;;;;2.82;100.00;100174.88;4831659;29;20076;-68
2023/11/29 10:10:16;;;;;;;7.75;3.00;;;;;;;2.86;100.00;100178.75;4810327;29;20477;-67
2023/11/29 10:13:04;;;;;;;9.60;3.35;;;;;;;2.89;100.00;100174.78;4823200;29;20060;-68
2023/11/29 10:15:54;;;;;;;7.70;2.67;;;;;;;2.89;100.00;100180.16;4811707;29;20050;-67
2023/11/29 10:18:45;;;;;;;7.45;2.97;;;;;;;2.90;100.00;100174.53;4829999;29;20058;-67
2023/11/29 10:21:33;;;;;;;8.75;3.28;;;;;;;2.92;100.00;100174.31;4828456;29;20472;-68
2023/11/29 10:24:25;;;;;;;7.47;3.00;;;;;;;2.96;100.00;100170.09;4830064;29;20050;-66
2023/11/29 10:27:14;;;;;;;7.32;2.78;;;;;;;2.98;100.00;100163.44;4810641;29;20064;-66
2023/11/29 10:30:03;;;;;;;6.68;2.53;;;;;;;3.04;100.00;100171.63;4811944;29;20125;-66
2023/11/29 10:32:52;;;;;;;8.60;2.78;;;;;;;3.06;100.00;100164.13;4822731;29;20099;-66
2023/11/29 10:35:41;;;;;;;6.50;2.63;;;;;;;3.06;100.00;100166.81;4824355;29;20050;-66
2023/11/29 10:38:31;;;;;;;11.45;2.95;;;;;;;3.07;100.00;100161.19;4823537;29;20050;-67
2023/11/29 10:41:22;;;;;;;7.32;2.40;;;;;;;3.10;100.00;100155.34;4828976;29;20052;-68
2023/11/29 10:44:13;;;;;;;8.38;3.33;;;;;;;3.08;100.00;100159.31;4821998;29;20062;-65
2023/11/29 10:47:19;;;;;;;8.05;3.00;;;;;;;3.05;100.00;100151.72;4838271;29;20129;-67
2023/11/29 10:50:08;;;;;;;7.72;2.85;;;;;;;3.09;100.00;100156.41;4829787;29;20054;-68
2023/11/29 10:52:56;;;;;;;5.85;2.75;;;;;;;3.24;100.00;100158.59;4853775;29;20045;-66
2023/11/29 10:55:45;;;;;;;13.45;3.50;;;;;;;3.23;100.00;100158.84;4843844;29;20042;-67
2023/11/29 10:58:39;;;;;;;9.38;3.30;;;;;;;3.17;100.00;100160.59;4847848;29;20066;-67
2023/11/29 11:01:32;;;;;;;9.30;3.35;;;;;;;3.19;100.00;100155.81;4838124;29;20050;-68
2023/11/29 11:04:21;;;;;;;8.23;3.33;;;;;;;3.23;100.00;100165.06;4824583;29;20428;-67
2023/11/29 11:07:39;;;;;;;9.73;3.80;;;;;;;3.27;100.00;100158.16;4830452;29;20104;-67
2023/11/29 11:10:27;;;;;;;13.60;3.47;;;;;;;3.29;100.00;100152.50;4828107;29;20100;-68
2023/11/29 11:13:35;;;;;;;7.60;2.97;;;;;;;3.34;100.00;100155.31;4822849;29;20104;-66
2023/11/29 11:16:23;;;;;;;9.82;3.13;;;;;;;3.36;100.00;100162.09;4835165;29;20085;-67
2023/11/29 11:19:11;;;;;;;10.38;3.20;;;;;;;3.37;100.00;100160.25;4847274;29;20064;-71
2023/11/29 11:22:05;;;;;;;9.35;3.28;;;;;;;3.39;100.00;100169.72;4844715;29;20054;-68
2023/11/29 11:24:53;;;;;;;7.47;2.75;;;;;;;3.42;100.00;100165.72;4169212;29;9999910;-67
2023/11/29 11:27:46;;;;;;;10.00;2.85;;;;;;;3.45;100.00;100167.13;4829026;29;20133;-68
2023/11/29 11:30:42;;;;;;;8.00;3.00;;;;;;;3.46;100.00;100160.69;4825882;29;20064;-67
2023/11/29 11:33:54;;;;;;;8.48;2.67;;;;;;;3.48;100.00;100161.25;4840828;29;20626;-67
2023/11/29 11:36:43;;;;;;;8.43;3.25;;;;;;;3.54;100.00;100152.25;4832741;29;20058;-68
2023/11/29 11:39:31;;;;;;;9.45;2.95;;;;;;;3.59;100.00;100152.34;4821059;29;20050;-65
2023/11/29 11:42:20;;;;;;;8.05;2.90;;;;;;;3.63;100.00;100156.19;4832622;29;20211;-67
2023/11/29 11:45:09;;;;;;;8.63;2.90;;;;;;;3.65;100.00;100161.34;4837800;29;20137;-68
2023/11/29 11:47:57;;;;;;;7.85;3.00;;;;;;;3.63;100.00;100148.94;4806877;29;20828;-68
2023/11/29 11:50:45;;;;;;;8.77;3.03;;;;;;;3.63;100.00;100151.63;4840403;29;20077;-68
2023/11/29 11:53:43;;;;;;;11.73;2.90;;;;;;;3.62;100.00;100149.16;4839759;29;20050;-68
2023/11/29 11:56:31;;;;;;;11.25;3.25;;;;;;;3.63;100.00;100145.41;4820490;29;20046;-68
2023/11/29 11:59:19;;;;;;;8.70;3.50;;;;;;;3.64;100.00;100152.44;4827173;29;20443;-68
2023/11/29 12:02:08;;;;;;;9.13;3.17;;;;;;;3.66;100.00;100158.41;4827558;29;20429;-68
2023/11/29 12:04:56;;;;;;;9.80;3.10;;;;;;;3.71;100.00;100166.59;4840072;29;20069;-69
2023/11/29 12:07:44;;;;;;;8.80;2.97;;;;;;;3.75;100.00;100159.69;4830808;29;20046;-68
2023/11/29 12:10:34;;;;;;;10.00;3.05;;;;;;;3.79;100.00;100162.69;4840264;29;20061;-68
2023/11/29 12:13:22;;;;;;;10.38;3.00;;;;;;;3.81;100.00;100161.41;4826736;29;20098;-68
2023/11/29 12:16:14;;;;;;;10.40;3.20;;;;;;;3.80;100.00;100159.78;4839740;29;20487;-67
2023/11/29 12:19:03;;;;;;;6.65;2.42;;;;;;;3.79;100.00;100154.63;4833952;29;20050;-68
2023/11/29 12:21:51;;;;;;;9.27;3.13;;;;;;;3.79;100.00;100152.75;4837410;29;20049;-68
2023/11/29 12:24:42;;;;;;;7.18;2.97;;;;;;;3.78;100.00;100155.69;4828932;29;20420;-67
2023/11/29 12:27:35;;;;;;;6.40;2.50;;;;;;;3.77;100.00;100167.50;4809140;29;20088;-68
2023/11/29 12:30:23;;;;;;;9.75;3.47;;;;;;;3.75;100.00;100162.38;4806738;29;20082;-66
2023/11/29 12:33:13;;;;;;;12.20;2.88;;;;;;;3.74;100.00;100165.31;4822075;29;20146;-67
2023/11/29 12:36:03;;;;;;;8.15;2.58;;;;;;;3.78;100.00;100172.66;4821668;29;20133;-66
2023/11/29 12:38:52;;;;;;;9.85;3.00;;;;;;;3.92;100.00;100172.38;4808107;29;20427;-69
2023/11/29 12:41:40;;;;;;;8.20;2.60;;;;;;;3.92;100.00;100172.38;4821561;29;20047;-67
2023/11/29 12:44:28;;;;;;;8.57;2.88;;;;;;;3.86;100.00;100163.38;4818811;29;20062;-67
2023/11/29 12:47:21;;;;;;;6.82;2.80;;;;;;;3.80;100.00;100170.56;4838141;29;20065;-67
2023/11/29 12:50:11;;;;;;;7.75;2.70;;;;;;;3.77;100.00;100176.41;4838533;29;20065;-68
2023/11/29 12:53:00;;;;;;;6.70;2.90;;;;;;;3.75;100.00;100173.16;4833104;29;20133;-68
2023/11/29 12:55:48;;;;;;;10.48;3.13;;;;;;;3.75;100.00;100170.47;4824484;29;20688;-69
2023/11/29 12:58:36;;;;;;;11.00;3.08;;;;;;;3.75;100.00;100175.84;4839101;29;20514;-69
2023/11/29 13:01:24;;;;;;;6.65;2.90;;;;;;;3.75;100.00;100178.53;4839113;29;20054;-68
2023/11/29 13:04:12;;;;;;;10.60;3.03;;;;;;;3.78;100.00;100172.66;4838127;29;20069;-67
2023/11/29 13:07:00;;;;;;;8.60;3.10;;;;;;;3.78;100.00;100172.66;4839746;29;20596;-68
2023/11/29 13:09:48;;;;;;;12.13;3.00;;;;;;;3.80;100.00;100167.03;4824906;29;20053;-69